Time;durP1;ratioP1;P1;durP2;ratioP2;P2;SDS_P1;SDS_P2;PMS_P1;PMS_P2;Temp;Humidity;BMP_temperature;BMP_pressure;BME280_temperature;BME280_humidity;BME280_pressure;Samples;Min_cycle;Max_cycle;Signal;HPM_P1;HPM_P2
2021/05/08 00:00:00;;;;;;;10.93;9.83;;;;;;;;;;2098629;28;20211;-61
2021/05/08 00:01:01;;;;;;;9.50;8.53;;;;;;;;;;2099544;28;20222;-56
2021/05/08 00:02:01;;;;;;;10.60;9.60;;;;;;;;;;2106804;28;20177;-62
2021/05/08 00:03:02;;;;;;;10.70;9.70;;;;;;;;;;2116742;28;20272;-59
2021/05/08 00:04:02;;;;;;;9.90;8.90;;;;;;;;;;2109139;28;20206;-60
2021/05/08 00:05:03;;;;;;;10.53;9.40;;;;;;;;;;2116202;28;20173;-61
2021/05/08 00:06:07;;;;;;;9.40;8.70;;;;;;;;;;2108039;28;20174;-61
2021/05/08 00:07:07;;;;;;;10.33;9.33;;;;;;;;;;2098865;28;20189;-61
2021/05/08 00:08:07;;;;;;;10.87;9.80;;;;;;;;;;2096214;28;20178;-56
2021/05/08 00:09:08;;;;;;;11.10;10.00;;;;;;;;;;2100135;28;20170;-62
2021/05/08 00:10:09;;;;;;;10.10;9.13;;;;;;;;;;2106722;28;20550;-55
2021/05/08 00:11:09;;;;;;;11.00;9.90;;;;;;;;;;2110000;28;20178;-65
2021/05/08 00:12:10;;;;;;;12.00;10.43;;;;;;;;;;2110623;28;20230;-64
2021/05/08 00:13:11;;;;;;;13.00;10.43;;;;;;;;;;2106904;28;20174;-61
2021/05/08 00:14:11;;;;;;;11.93;9.93;;;;;;;;;;2108902;28;20292;-59
2021/05/08 00:15:12;;;;;;;11.70;10.60;;;;;;;;;;2108945;28;20253;-59
2021/05/08 00:16:12;;;;;;;12.20;11.07;;;;;;;;;;2107777;28;20561;-56
2021/05/08 00:17:13;;;;;;;9.90;9.00;;;;;;;;;;2108271;28;20704;-60
2021/05/08 00:18:13;;;;;;;10.83;9.83;;;;;;;;;;2097644;28;20183;-55
2021/05/08 00:19:13;;;;;;;11.10;9.97;;;;;;;;;;2099727;28;20228;-53
2021/05/08 00:20:14;;;;;;;11.83;10.63;;;;;;;;;;2107265;28;20184;-59
2021/05/08 00:21:14;;;;;;;10.33;9.27;;;;;;;;;;2106446;28;20174;-59
2021/05/08 00:22:14;;;;;;;10.20;9.10;;;;;;;;;;2106809;28;20162;-59
2021/05/08 00:23:15;;;;;;;11.23;9.97;;;;;;;;;;2100282;28;20175;-59
2021/05/08 00:24:15;;;;;;;11.40;9.73;;;;;;;;;;2097919;28;20209;-59
2021/05/08 00:25:15;;;;;;;10.83;9.73;;;;;;;;;;2097493;28;20171;-57
2021/05/08 00:26:16;;;;;;;11.53;10.10;;;;;;;;;;2097851;28;20171;-57
2021/05/08 00:27:16;;;;;;;11.00;9.90;;;;;;;;;;2107185;28;20170;-55
2021/05/08 00:28:16;;;;;;;11.40;10.23;;;;;;;;;;2097766;28;20190;-62
2021/05/08 00:29:16;;;;;;;12.77;11.03;;;;;;;;;;2097766;28;20236;-60
2021/05/08 00:30:17;;;;;;;11.87;10.00;;;;;;;;;;2089717;28;20171;-54
2021/05/08 00:31:17;;;;;;;12.00;10.43;;;;;;;;;;2085815;28;20270;-62
2021/05/08 00:32:18;;;;;;;13.93;10.90;;;;;;;;;;2096206;28;20170;-57
2021/05/08 00:33:18;;;;;;;9.80;8.90;;;;;;;;;;2098828;28;20183;-59
2021/05/08 00:34:18;;;;;;;11.97;10.67;;;;;;;;;;2099496;28;20264;-57
2021/05/08 00:35:19;;;;;;;13.37;11.23;;;;;;;;;;2100407;28;20170;-64
2021/05/08 00:36:19;;;;;;;13.87;11.20;;;;;;;;;;2102229;28;20167;-62
2021/05/08 00:37:19;;;;;;;11.30;10.20;;;;;;;;;;2112585;28;20250;-63
2021/05/08 00:38:20;;;;;;;12.13;10.73;;;;;;;;;;2107537;28;20166;-59
2021/05/08 00:39:20;;;;;;;11.43;10.40;;;;;;;;;;2101464;28;20273;-63
2021/05/08 00:40:20;;;;;;;12.60;10.30;;;;;;;;;;2103295;28;20185;-62
2021/05/08 00:41:21;;;;;;;13.63;12.27;;;;;;;;;;2101842;28;20169;-59
2021/05/08 00:42:21;;;;;;;14.13;11.20;;;;;;;;;;2094935;28;20240;-62
2021/05/08 00:43:21;;;;;;;12.33;11.23;;;;;;;;;;2098522;28;20595;-60
2021/05/08 00:44:22;;;;;;;13.13;11.93;;;;;;;;;;2098775;28;20671;-57
2021/05/08 00:45:24;;;;;;;12.93;11.73;;;;;;;;;;2103763;28;20253;-59
2021/05/08 00:46:25;;;;;;;12.00;10.80;;;;;;;;;;2094187;28;20172;-61
2021/05/08 00:47:25;;;;;;;12.33;11.23;;;;;;;;;;2090770;28;20179;-58
2021/05/08 00:48:27;;;;;;;12.63;11.10;;;;;;;;;;2090942;28;20163;-58
2021/05/08 00:49:29;;;;;;;11.97;10.60;;;;;;;;;;2098412;28;20179;-61
2021/05/08 00:50:31;;;;;;;12.70;11.00;;;;;;;;;;2092015;28;20213;-63
2021/05/08 00:51:31;;;;;;;11.53;10.33;;;;;;;;;;2092965;28;20244;-59
2021/05/08 00:52:32;;;;;;;11.80;10.33;;;;;;;;;;2090510;28;20175;-63
2021/05/08 00:53:32;;;;;;;15.47;11.53;;;;;;;;;;2092471;28;20209;-61
2021/05/08 00:54:33;;;;;;;14.30;10.83;;;;;;;;;;2098662;28;20191;-54
2021/05/08 00:55:34;;;;;;;12.03;10.90;;;;;;;;;;2111848;28;20174;-58
2021/05/08 00:56:35;;;;;;;11.87;10.77;;;;;;;;;;2101063;28;20178;-59
2021/05/08 00:57:35;;;;;;;11.53;10.40;;;;;;;;;;2094712;28;20171;-59
2021/05/08 00:58:37;;;;;;;12.53;10.47;;;;;;;;;;2100170;28;20167;-65
2021/05/08 00:59:37;;;;;;;12.00;10.80;;;;;;;;;;2106998;28;20212;-61
2021/05/08 01:00:38;;;;;;;12.53;11.43;;;;;;;;;;2101748;28;20280;-61
2021/05/08 01:01:40;;;;;;;15.60;11.67;;;;;;;;;;2094471;28;20198;-61
2021/05/08 01:02:40;;;;;;;13.67;11.67;;;;;;;;;;2107793;28;20182;-58
2021/05/08 01:03:44;;;;;;;16.73;12.30;;;;;;;;;;2110958;28;20170;-59
2021/05/08 01:04:45;;;;;;;16.87;11.50;;;;;;;;;;2104984;28;20173;-63
2021/05/08 01:05:45;;;;;;;13.33;11.50;;;;;;;;;;2102147;28;20167;-61
2021/05/08 01:06:48;;;;;;;12.33;10.83;;;;;;;;;;2113177;28;20166;-57
2021/05/08 01:07:49;;;;;;;14.33;12.73;;;;;;;;;;2110660;28;20173;-62
2021/05/08 01:08:50;;;;;;;13.97;11.17;;;;;;;;;;2101936;28;20178;-60
2021/05/08 01:09:51;;;;;;;16.67;11.67;;;;;;;;;;2102220;28;20588;-60
2021/05/08 01:10:52;;;;;;;12.50;11.30;;;;;;;;;;2110526;28;20223;-60
2021/05/08 01:11:52;;;;;;;12.50;10.67;;;;;;;;;;2092456;28;20631;-59
2021/05/08 01:12:53;;;;;;;13.23;11.93;;;;;;;;;;2095849;28;20187;-62
2021/05/08 01:13:54;;;;;;;12.37;11.13;;;;;;;;;;2099920;28;20281;-61
2021/05/08 01:14:54;;;;;;;13.10;11.73;;;;;;;;;;2104913;28;20182;-59
2021/05/08 01:15:55;;;;;;;12.37;11.23;;;;;;;;;;2099677;28;20178;-59
2021/05/08 01:16:56;;;;;;;12.33;11.03;;;;;;;;;;2091438;28;20183;-61
2021/05/08 01:17:57;;;;;;;12.17;11.07;;;;;;;;;;2085555;28;20243;-55
2021/05/08 01:18:58;;;;;;;13.60;12.17;;;;;;;;;;2107876;28;20678;-62
2021/05/08 01:20:00;;;;;;;14.13;11.83;;;;;;;;;;2110153;28;20166;-64
2021/05/08 01:21:00;;;;;;;13.73;12.17;;;;;;;;;;2115709;28;20177;-53
2021/05/08 01:22:02;;;;;;;15.93;10.90;;;;;;;;;;2090624;28;20180;-59
2021/05/08 01:23:04;;;;;;;12.30;11.07;;;;;;;;;;2084715;28;20171;-58
2021/05/08 01:24:04;;;;;;;12.23;10.87;;;;;;;;;;2107934;28;20202;-55
2021/05/08 01:25:06;;;;;;;11.83;10.63;;;;;;;;;;2105142;28;20186;-57
2021/05/08 01:26:06;;;;;;;12.60;11.43;;;;;;;;;;2098501;28;20167;-52
2021/05/08 01:27:06;;;;;;;12.37;11.13;;;;;;;;;;2108182;28;20635;-55
2021/05/08 01:28:07;;;;;;;12.80;11.60;;;;;;;;;;2107921;28;20170;-55
2021/05/08 01:29:12;;;;;;;12.67;11.47;;;;;;;;;;2111622;28;20598;-56
2021/05/08 01:30:15;;;;;;;19.23;11.27;;;;;;;;;;2107703;28;20237;-56
2021/05/08 01:31:16;;;;;;;12.03;10.93;;;;;;;;;;2097950;28;20186;-54
2021/05/08 01:32:17;;;;;;;13.97;11.60;;;;;;;;;;2098368;28;20174;-63
2021/05/08 01:33:18;;;;;;;15.33;13.03;;;;;;;;;;2102087;28;20886;-59
2021/05/08 01:34:18;;;;;;;13.90;12.60;;;;;;;;;;2099103;28;20214;-55
2021/05/08 01:35:18;;;;;;;15.43;12.10;;;;;;;;;;2094878;28;20270;-61
2021/05/08 01:36:19;;;;;;;19.93;16.23;;;;;;;;;;2090677;28;20176;-58
2021/05/08 01:37:20;;;;;;;16.50;14.73;;;;;;;;;;2090222;28;20217;-53
2021/05/08 01:38:21;;;;;;;12.33;11.20;;;;;;;;;;2102729;28;20539;-57
2021/05/08 01:39:21;;;;;;;13.17;11.87;;;;;;;;;;2097941;28;20228;-56
2021/05/08 01:40:41;;;;;;;13.63;11.53;;;;;;;;;;2091422;28;20164;-52
2021/05/08 01:41:52;;;;;;;13.40;12.10;;;;;;;;;;2086346;28;20187;-58
2021/05/08 01:42:53;;;;;;;12.60;11.33;;;;;;;;;;2102652;28;20543;-59
2021/05/08 01:43:54;;;;;;;13.00;11.77;;;;;;;;;;2107564;28;20176;-59
2021/05/08 01:44:55;;;;;;;13.00;11.53;;;;;;;;;;2097423;28;20186;-55
2021/05/08 01:45:55;;;;;;;12.23;11.13;;;;;;;;;;2095007;28;20227;-59
2021/05/08 01:46:56;;;;;;;13.20;11.90;;;;;;;;;;2098404;28;20171;-61
2021/05/08 01:47:58;;;;;;;14.53;12.10;;;;;;;;;;2098755;28;20821;-53
2021/05/08 01:48:58;;;;;;;13.33;12.03;;;;;;;;;;2098173;28;20177;-56
2021/05/08 01:49:58;;;;;;;13.23;11.90;;;;;;;;;;2103404;28;20861;-56
2021/05/08 01:50:59;;;;;;;12.87;11.30;;;;;;;;;;2098572;28;20224;-58
2021/05/08 01:52:00;;;;;;;14.73;11.90;;;;;;;;;;2090160;28;20778;-53
2021/05/08 01:53:01;;;;;;;12.53;11.37;;;;;;;;;;2090105;28;20330;-57
2021/05/08 01:54:01;;;;;;;14.23;12.83;;;;;;;;;;2098142;28;20199;-59
2021/05/08 01:55:05;;;;;;;12.43;11.27;;;;;;;;;;2089139;28;20175;-57
2021/05/08 01:56:06;;;;;;;13.37;12.17;;;;;;;;;;2099231;28;20181;-60
2021/05/08 01:57:07;;;;;;;13.80;12.40;;;;;;;;;;2096322;28;20179;-59
2021/05/08 01:58:07;;;;;;;14.17;12.07;;;;;;;;;;2083208;28;20247;-59
2021/05/08 01:59:13;;;;;;;14.17;12.77;;;;;;;;;;2100226;28;20182;-61
2021/05/08 02:00:16;;;;;;;13.90;12.33;;;;;;;;;;2101775;28;20178;-60
2021/05/08 02:01:19;;;;;;;13.90;12.60;;;;;;;;;;2103229;28;20175;-56
2021/05/08 02:02:23;;;;;;;13.27;11.97;;;;;;;;;;2098936;28;20171;-53
2021/05/08 02:03:23;;;;;;;15.83;14.17;;;;;;;;;;2098359;28;20285;-57
2021/05/08 02:04:24;;;;;;;13.97;12.67;;;;;;;;;;2107693;28;20190;-59
2021/05/08 02:05:29;;;;;;;13.30;12.00;;;;;;;;;;2107116;28;20181;-58
2021/05/08 02:06:32;;;;;;;12.47;11.27;;;;;;;;;;2097784;28;20167;-62
2021/05/08 02:07:47;;;;;;;12.90;11.60;;;;;;;;;;2096448;28;20655;-59
2021/05/08 02:08:48;;;;;;;12.83;11.30;;;;;;;;;;2107697;28;20414;-61
2021/05/08 02:09:59;;;;;;;13.00;11.80;;;;;;;;;;2092497;28;20344;-56
2021/05/08 02:10:59;;;;;;;13.37;12.00;;;;;;;;;;2098563;28;20236;-55
2021/05/08 02:12:00;;;;;;;12.23;11.03;;;;;;;;;;2098258;28;20191;-56
2021/05/08 02:13:04;;;;;;;13.27;11.90;;;;;;;;;;2098522;28;20557;-60
2021/05/08 02:14:05;;;;;;;12.63;11.33;;;;;;;;;;2098149;28;20194;-57
2021/05/08 02:15:09;;;;;;;13.40;12.00;;;;;;;;;;2098685;28;20189;-57
2021/05/08 02:16:09;;;;;;;12.80;11.50;;;;;;;;;;2098429;28;20209;-58
2021/05/08 02:17:10;;;;;;;13.67;12.37;;;;;;;;;;2098639;28;20182;-56
2021/05/08 02:18:11;;;;;;;13.00;11.53;;;;;;;;;;2098398;28;20199;-61
2021/05/08 02:19:11;;;;;;;14.13;12.47;;;;;;;;;;2098511;28;20179;-58
2021/05/08 02:20:13;;;;;;;14.20;12.77;;;;;;;;;;2107214;28;20170;-58
2021/05/08 02:21:13;;;;;;;13.63;12.27;;;;;;;;;;2090210;28;20713;-59
2021/05/08 02:22:19;;;;;;;13.90;12.40;;;;;;;;;;2089152;28;20393;-55
2021/05/08 02:23:20;;;;;;;14.57;12.60;;;;;;;;;;2088564;28;20553;-58
2021/05/08 02:24:24;;;;;;;13.93;12.50;;;;;;;;;;2090718;28;20681;-57
2021/05/08 02:25:25;;;;;;;17.33;15.00;;;;;;;;;;2100878;28;20171;-59
2021/05/08 02:26:25;;;;;;;19.37;17.20;;;;;;;;;;2093047;28;20176;-61
2021/05/08 02:27:26;;;;;;;20.90;17.57;;;;;;;;;;2084062;28;20172;-59
2021/05/08 02:28:26;;;;;;;16.57;13.60;;;;;;;;;;2091951;28;20698;-55
2021/05/08 02:29:27;;;;;;;14.83;13.33;;;;;;;;;;2095364;28;20170;-54
2021/05/08 02:30:29;;;;;;;14.40;12.93;;;;;;;;;;2097997;28;20183;-60
2021/05/08 02:31:29;;;;;;;13.47;12.17;;;;;;;;;;2089233;28;20231;-53
2021/05/08 02:32:29;;;;;;;13.83;12.43;;;;;;;;;;2099453;28;20183;-56
2021/05/08 02:33:30;;;;;;;13.90;12.20;;;;;;;;;;2097236;28;20187;-61
2021/05/08 02:34:30;;;;;;;14.23;12.73;;;;;;;;;;2109477;22;20734;-55
2021/05/08 02:35:31;;;;;;;13.17;11.87;;;;;;;;;;2106960;28;20290;-58
2021/05/08 02:36:32;;;;;;;15.00;12.77;;;;;;;;;;2102238;28;20196;-57
2021/05/08 02:37:32;;;;;;;14.13;12.70;;;;;;;;;;2111113;28;20175;-60
2021/05/08 02:38:33;;;;;;;14.73;13.23;;;;;;;;;;2111471;28;20197;-60
2021/05/08 02:39:33;;;;;;;13.97;12.57;;;;;;;;;;2111605;28;20269;-57
2021/05/08 02:40:36;;;;;;;14.30;12.77;;;;;;;;;;2111644;28;20189;-56
2021/05/08 02:41:36;;;;;;;14.37;12.67;;;;;;;;;;2126619;27;20161;-58
2021/05/08 02:42:37;;;;;;;13.47;12.17;;;;;;;;;;2118463;27;20282;-59
2021/05/08 02:43:39;;;;;;;14.30;12.83;;;;;;;;;;2120952;27;20162;-58
2021/05/08 02:44:44;;;;;;;13.93;12.63;;;;;;;;;;2128444;27;20481;-58
2021/05/08 02:45:45;;;;;;;14.90;13.40;;;;;;;;;;2110851;28;20262;-59
2021/05/08 02:46:46;;;;;;;13.50;12.27;;;;;;;;;;2115813;28;20260;-60
2021/05/08 02:47:47;;;;;;;18.57;13.47;;;;;;;;;;2118633;28;20174;-60
2021/05/08 02:48:48;;;;;;;15.03;12.80;;;;;;;;;;2102800;28;20162;-60
2021/05/08 02:49:48;;;;;;;14.37;12.97;;;;;;;;;;2112446;28;20210;-59
2021/05/08 02:50:49;;;;;;;16.07;14.37;;;;;;;;;;2105113;28;20178;-59
2021/05/08 02:51:49;;;;;;;14.30;12.80;;;;;;;;;;2105370;28;20585;-57
2021/05/08 02:52:49;;;;;;;14.07;12.67;;;;;;;;;;2110209;28;20182;-60
2021/05/08 02:53:50;;;;;;;14.67;13.17;;;;;;;;;;2108911;28;20542;-61
2021/05/08 02:54:50;;;;;;;14.50;13.00;;;;;;;;;;2110923;28;20731;-59
2021/05/08 02:55:51;;;;;;;14.40;12.87;;;;;;;;;;2127624;27;20185;-59
2021/05/08 02:56:55;;;;;;;14.13;12.53;;;;;;;;;;2120168;28;20189;-60
2021/05/08 02:58:01;;;;;;;14.50;13.00;;;;;;;;;;2118637;28;20618;-61
2021/05/08 02:59:01;;;;;;;15.47;12.20;;;;;;;;;;2103851;28;20217;-59
2021/05/08 03:00:03;;;;;;;13.83;12.03;;;;;;;;;;2113134;28;20302;-56
2021/05/08 03:01:04;;;;;;;14.47;13.07;;;;;;;;;;2105858;28;20589;-58
2021/05/08 03:02:04;;;;;;;15.47;13.87;;;;;;;;;;2105710;28;20498;-58
2021/05/08 03:03:05;;;;;;;14.63;13.10;;;;;;;;;;2107606;28;20303;-60
2021/05/08 03:04:07;;;;;;;15.17;13.70;;;;;;;;;;2103168;28;20182;-53
2021/05/08 03:05:08;;;;;;;14.77;12.93;;;;;;;;;;2107660;28;21031;-59
2021/05/08 03:06:09;;;;;;;16.83;14.30;;;;;;;;;;2119390;27;20225;-54
2021/05/08 03:07:14;;;;;;;14.60;13.20;;;;;;;;;;2106451;28;20420;-54
2021/05/08 03:08:15;;;;;;;15.93;14.30;;;;;;;;;;2101877;28;20408;-59
2021/05/08 03:09:15;;;;;;;14.93;13.43;;;;;;;;;;2105250;28;20256;-60
2021/05/08 03:10:16;;;;;;;15.20;13.70;;;;;;;;;;2109510;28;20166;-60
2021/05/08 03:11:19;;;;;;;15.40;13.87;;;;;;;;;;2102723;28;20197;-57
2021/05/08 03:12:21;;;;;;;15.87;14.33;;;;;;;;;;2101148;28;20167;-57
2021/05/08 03:13:21;;;;;;;18.83;14.00;;;;;;;;;;2108261;28;20637;-56
2021/05/08 03:14:22;;;;;;;17.77;15.00;;;;;;;;;;2118568;27;20230;-55
2021/05/08 03:15:23;;;;;;;16.67;14.80;;;;;;;;;;2107580;28;20312;-55
2021/05/08 03:16:26;;;;;;;15.33;13.80;;;;;;;;;;2109876;28;20180;-59
2021/05/08 03:17:27;;;;;;;15.83;13.67;;;;;;;;;;2117020;27;20417;-57
2021/05/08 03:18:30;;;;;;;16.23;14.53;;;;;;;;;;2115347;27;20235;-60
2021/05/08 03:19:32;;;;;;;15.70;14.13;;;;;;;;;;2118822;27;20451;-59
2021/05/08 03:20:32;;;;;;;15.97;14.37;;;;;;;;;;2107799;28;20175;-54
2021/05/08 03:21:33;;;;;;;15.17;13.60;;;;;;;;;;2103704;28;20181;-62
2021/05/08 03:22:33;;;;;;;15.70;14.10;;;;;;;;;;2107671;28;20171;-58
2021/05/08 03:23:34;;;;;;;16.60;13.93;;;;;;;;;;2110766;28;20168;-58
2021/05/08 03:24:35;;;;;;;19.17;14.70;;;;;;;;;;2099500;28;20225;-59
2021/05/08 03:25:35;;;;;;;17.87;14.20;;;;;;;;;;2108949;28;20504;-53
2021/05/08 03:26:36;;;;;;;16.27;14.50;;;;;;;;;;2113389;27;20193;-56
2021/05/08 03:27:37;;;;;;;20.00;15.37;;;;;;;;;;2111900;28;20193;-59
2021/05/08 03:28:37;;;;;;;16.97;14.63;;;;;;;;;;2098637;28;20163;-59
2021/05/08 03:29:37;;;;;;;15.70;13.83;;;;;;;;;;2104124;28;20174;-59
2021/05/08 03:30:37;;;;;;;17.43;15.60;;;;;;;;;;2106678;28;20249;-61
2021/05/08 03:31:40;;;;;;;16.33;14.57;;;;;;;;;;2122061;27;20667;-60
2021/05/08 03:32:41;;;;;;;18.87;15.10;;;;;;;;;;2107359;28;20186;-60
2021/05/08 03:33:41;;;;;;;17.80;15.23;;;;;;;;;;2114431;28;20181;-61
2021/05/08 03:34:41;;;;;;;17.20;15.07;;;;;;;;;;2107037;28;20399;-59
2021/05/08 03:35:42;;;;;;;17.93;15.77;;;;;;;;;;2086240;28;20215;-58
2021/05/08 03:36:43;;;;;;;18.80;15.40;;;;;;;;;;2097640;28;20274;-58
2021/05/08 03:37:43;;;;;;;20.27;15.67;;;;;;;;;;2121614;27;20172;-59
2021/05/08 03:38:43;;;;;;;17.03;15.20;;;;;;;;;;2112890;28;20215;-55
2021/05/08 03:39:44;;;;;;;17.67;15.13;;;;;;;;;;2097396;28;20210;-58
2021/05/08 03:40:44;;;;;;;19.37;15.57;;;;;;;;;;2113881;28;20176;-59
2021/05/08 03:41:44;;;;;;;17.50;15.60;;;;;;;;;;2114659;28;20249;-57
2021/05/08 03:42:45;;;;;;;18.17;16.27;;;;;;;;;;2119121;27;20189;-58
2021/05/08 03:43:45;;;;;;;17.27;15.40;;;;;;;;;;2106711;28;20178;-56
2021/05/08 03:44:45;;;;;;;18.73;15.97;;;;;;;;;;2113857;28;20196;-55
2021/05/08 03:45:47;;;;;;;16.83;15.10;;;;;;;;;;2104125;28;20743;-60
2021/05/08 03:46:48;;;;;;;20.70;16.03;;;;;;;;;;2122956;27;20200;-57
2021/05/08 03:47:48;;;;;;;18.60;16.60;;;;;;;;;;2113940;28;20222;-59
2021/05/08 03:48:48;;;;;;;20.17;17.60;;;;;;;;;;2113447;28;20225;-58
2021/05/08 03:49:48;;;;;;;18.20;15.90;;;;;;;;;;2095819;28;20178;-57
2021/05/08 03:50:49;;;;;;;18.30;16.07;;;;;;;;;;2114216;28;20169;-58
2021/05/08 03:51:49;;;;;;;17.23;15.57;;;;;;;;;;2114773;28;20773;-61
2021/05/08 03:52:49;;;;;;;17.53;15.70;;;;;;;;;;2098217;28;20198;-55
2021/05/08 03:53:51;;;;;;;18.97;16.77;;;;;;;;;;2101057;28;20171;-57
2021/05/08 03:54:51;;;;;;;19.70;16.20;;;;;;;;;;2105638;28;20348;-58
2021/05/08 03:55:52;;;;;;;18.03;15.90;;;;;;;;;;2101571;28;20423;-57
2021/05/08 03:56:52;;;;;;;17.93;16.13;;;;;;;;;;2122529;27;20210;-55
2021/05/08 03:57:52;;;;;;;17.60;15.73;;;;;;;;;;2113986;28;20193;-57
2021/05/08 03:58:53;;;;;;;19.53;15.37;;;;;;;;;;2122959;27;20644;-59
2021/05/08 03:59:53;;;;;;;16.90;15.23;;;;;;;;;;2103339;28;20595;-59
2021/05/08 04:00:53;;;;;;;16.90;15.17;;;;;;;;;;2115036;28;20592;-57
2021/05/08 04:01:53;;;;;;;19.50;15.50;;;;;;;;;;2111494;28;20193;-59
2021/05/08 04:02:54;;;;;;;17.37;15.43;;;;;;;;;;2118452;27;20169;-57
2021/05/08 04:03:55;;;;;;;17.93;15.77;;;;;;;;;;2117661;27;20193;-58
2021/05/08 04:04:55;;;;;;;17.63;15.37;;;;;;;;;;2124400;27;20196;-60
2021/05/08 04:05:55;;;;;;;18.30;16.40;;;;;;;;;;2111758;27;20188;-59
2021/05/08 04:06:55;;;;;;;18.37;16.30;;;;;;;;;;2108581;27;20162;-59
2021/05/08 04:07:56;;;;;;;18.67;16.67;;;;;;;;;;2122382;27;20161;-60
2021/05/08 04:08:56;;;;;;;18.87;16.87;;;;;;;;;;2108954;28;20178;-57
2021/05/08 04:09:56;;;;;;;18.17;16.37;;;;;;;;;;2121821;27;20659;-55
2021/05/08 04:10:57;;;;;;;18.27;16.23;;;;;;;;;;2115768;27;20625;-58
2021/05/08 04:11:57;;;;;;;19.97;16.60;;;;;;;;;;2105161;28;20274;-54
2021/05/08 04:12:57;;;;;;;18.20;16.47;;;;;;;;;;2104998;28;20178;-53
2021/05/08 04:13:58;;;;;;;17.47;15.03;;;;;;;;;;2113364;28;20174;-59
2021/05/08 04:14:58;;;;;;;18.53;16.73;;;;;;;;;;2108491;27;20239;-59
2021/05/08 04:15:58;;;;;;;17.30;15.50;;;;;;;;;;2116482;27;20178;-56
2021/05/08 04:16:58;;;;;;;22.03;17.20;;;;;;;;;;2108845;27;20174;-59
2021/05/08 04:17:59;;;;;;;18.67;16.57;;;;;;;;;;2103025;28;20202;-58
2021/05/08 04:18:59;;;;;;;18.37;16.57;;;;;;;;;;2097558;28;20941;-57
2021/05/08 04:20:00;;;;;;;18.90;16.40;;;;;;;;;;2114839;28;20205;-59
2021/05/08 04:21:00;;;;;;;18.53;16.37;;;;;;;;;;2113864;28;20211;-57
2021/05/08 04:22:00;;;;;;;18.43;16.53;;;;;;;;;;2115093;28;20172;-56
2021/05/08 04:23:01;;;;;;;18.43;16.40;;;;;;;;;;2120702;27;20197;-58
2021/05/08 04:24:01;;;;;;;19.20;16.83;;;;;;;;;;2115125;27;20550;-56
2021/05/08 04:25:01;;;;;;;25.57;17.57;;;;;;;;;;2120021;27;20194;-56
2021/05/08 04:26:02;;;;;;;18.53;16.73;;;;;;;;;;2118739;27;20567;-55
2021/05/08 04:27:02;;;;;;;18.80;16.87;;;;;;;;;;2120634;27;20612;-54
2021/05/08 04:28:02;;;;;;;18.17;16.37;;;;;;;;;;2121281;27;20192;-55
2021/05/08 04:29:03;;;;;;;18.60;16.30;;;;;;;;;;2106862;28;20175;-54
2021/05/08 04:30:04;;;;;;;18.57;16.53;;;;;;;;;;2111773;28;20761;-55
2021/05/08 04:31:04;;;;;;;17.87;16.07;;;;;;;;;;2110778;28;20197;-57
2021/05/08 04:32:04;;;;;;;18.30;15.17;;;;;;;;;;2111980;28;20416;-55
2021/05/08 04:33:05;;;;;;;18.27;16.27;;;;;;;;;;2110957;28;20174;-62
2021/05/08 04:34:05;;;;;;;17.23;15.60;;;;;;;;;;2104705;28;20240;-58
2021/05/08 04:35:06;;;;;;;18.87;16.00;;;;;;;;;;2107299;28;20198;-58
2021/05/08 04:36:06;;;;;;;19.37;16.17;;;;;;;;;;2110267;28;20520;-56
2021/05/08 04:37:06;;;;;;;16.93;15.23;;;;;;;;;;2108191;28;20291;-57
2021/05/08 04:38:07;;;;;;;17.23;15.50;;;;;;;;;;2118244;27;20259;-55
2021/05/08 04:39:07;;;;;;;17.13;15.33;;;;;;;;;;2101996;28;20183;-55
2021/05/08 04:40:07;;;;;;;15.77;14.13;;;;;;;;;;2110499;28;20180;-57
2021/05/08 04:41:08;;;;;;;17.13;15.33;;;;;;;;;;2111215;28;20350;-57
2021/05/08 04:42:08;;;;;;;16.33;14.73;;;;;;;;;;2111508;28;20198;-59
2021/05/08 04:43:08;;;;;;;18.37;16.47;;;;;;;;;;2115330;28;20176;-55
2021/05/08 04:44:09;;;;;;;18.20;16.50;;;;;;;;;;2119901;28;20584;-55
2021/05/08 04:45:09;;;;;;;20.97;16.77;;;;;;;;;;2117379;28;20210;-59
2021/05/08 04:46:09;;;;;;;18.57;16.53;;;;;;;;;;2113628;28;20173;-55
2021/05/08 04:47:13;;;;;;;18.40;16.57;;;;;;;;;;2119489;28;20178;-58
2021/05/08 04:48:26;;;;;;;19.03;16.57;;;;;;;;;;2117241;28;20169;-59
2021/05/08 04:49:26;;;;;;;16.97;15.23;;;;;;;;;;2113221;28;20164;-57
2021/05/08 04:50:27;;;;;;;16.37;14.77;;;;;;;;;;2119726;28;20499;-57
2021/05/08 04:51:27;;;;;;;23.23;15.37;;;;;;;;;;2117641;28;20165;-57
2021/05/08 04:52:27;;;;;;;17.13;15.43;;;;;;;;;;2115728;27;20760;-56
2021/05/08 04:53:28;;;;;;;16.03;14.43;;;;;;;;;;2120868;27;20184;-60
2021/05/08 04:54:28;;;;;;;16.03;14.63;;;;;;;;;;2119327;27;20166;-62
2021/05/08 04:55:29;;;;;;;18.03;15.60;;;;;;;;;;2121415;27;20629;-59
2021/05/08 04:56:29;;;;;;;16.23;14.63;;;;;;;;;;2117927;27;20224;-58
2021/05/08 04:57:29;;;;;;;17.10;15.40;;;;;;;;;;2119205;27;20172;-57
2021/05/08 04:58:29;;;;;;;17.93;16.17;;;;;;;;;;2119054;27;20166;-58
2021/05/08 04:59:30;;;;;;;17.73;15.37;;;;;;;;;;2121069;27;20204;-58
2021/05/08 05:00:30;;;;;;;16.87;15.27;;;;;;;;;;2117078;27;20177;-56
2021/05/08 05:01:31;;;;;;;18.30;16.47;;;;;;;;;;2122216;27;20180;-54
2021/05/08 05:02:31;;;;;;;17.10;15.30;;;;;;;;;;2118057;27;20173;-58
2021/05/08 05:03:31;;;;;;;17.07;15.27;;;;;;;;;;2113324;28;20170;-58
2021/05/08 05:04:32;;;;;;;16.83;15.17;;;;;;;;;;2115624;28;20181;-56
2021/05/08 05:05:32;;;;;;;16.27;14.67;;;;;;;;;;2111237;28;20207;-61
2021/05/08 05:06:32;;;;;;;16.47;14.77;;;;;;;;;;2113979;27;20186;-60
2021/05/08 05:07:32;;;;;;;17.83;15.10;;;;;;;;;;2113778;27;20278;-58
2021/05/08 05:08:33;;;;;;;17.60;15.70;;;;;;;;;;2121821;27;20676;-60
2021/05/08 05:09:34;;;;;;;16.17;14.70;;;;;;;;;;2112424;27;20186;-59
2021/05/08 05:10:34;;;;;;;17.27;15.67;;;;;;;;;;2113403;27;20181;-61
2021/05/08 05:11:34;;;;;;;17.10;15.43;;;;;;;;;;2115511;27;20181;-59
2021/05/08 05:12:35;;;;;;;18.43;16.50;;;;;;;;;;2122387;27;20310;-58
2021/05/08 05:13:35;;;;;;;17.03;15.43;;;;;;;;;;2116779;27;20178;-56
2021/05/08 05:14:35;;;;;;;17.80;15.90;;;;;;;;;;2122192;27;20188;-58
2021/05/08 05:15:35;;;;;;;18.13;15.63;;;;;;;;;;2122654;27;20551;-58
2021/05/08 05:16:36;;;;;;;17.23;15.53;;;;;;;;;;2117420;27;20231;-56
2021/05/08 05:17:36;;;;;;;18.50;16.33;;;;;;;;;;2121318;27;20263;-58
2021/05/08 05:18:36;;;;;;;17.30;15.40;;;;;;;;;;2111049;27;20220;-59
2021/05/08 05:19:36;;;;;;;18.07;16.27;;;;;;;;;;2120452;27;20294;-56
2021/05/08 05:20:37;;;;;;;17.83;16.03;;;;;;;;;;2107799;28;20182;-59
2021/05/08 05:21:37;;;;;;;17.33;15.70;;;;;;;;;;2106989;28;20167;-57
2021/05/08 05:22:38;;;;;;;17.73;15.93;;;;;;;;;;2099899;28;20289;-59
2021/05/08 05:23:38;;;;;;;16.73;15.03;;;;;;;;;;2112710;28;20644;-61
2021/05/08 05:24:38;;;;;;;17.57;15.73;;;;;;;;;;2116426;27;20174;-60
2021/05/08 05:25:38;;;;;;;16.77;15.10;;;;;;;;;;2123148;27;20260;-60
2021/05/08 05:26:39;;;;;;;17.27;15.57;;;;;;;;;;2111797;27;20188;-60
2021/05/08 05:27:39;;;;;;;17.37;15.57;;;;;;;;;;2104231;28;20190;-59
2021/05/08 05:28:39;;;;;;;17.23;15.53;;;;;;;;;;2106730;28;20163;-57
2021/05/08 05:29:40;;;;;;;18.57;16.77;;;;;;;;;;2110802;27;20568;-60
2021/05/08 05:30:40;;;;;;;17.27;15.57;;;;;;;;;;2115542;27;20180;-62
2021/05/08 05:31:41;;;;;;;17.60;15.80;;;;;;;;;;2123383;27;20181;-62
2021/05/08 05:32:41;;;;;;;17.33;15.63;;;;;;;;;;2110947;27;20213;-61
2021/05/08 05:33:41;;;;;;;17.20;15.50;;;;;;;;;;2122255;27;20173;-61
2021/05/08 05:34:41;;;;;;;17.10;15.43;;;;;;;;;;2110045;27;20222;-61
2021/05/08 05:35:42;;;;;;;17.57;15.87;;;;;;;;;;2099117;28;20187;-59
2021/05/08 05:36:42;;;;;;;18.23;15.77;;;;;;;;;;2099014;28;20179;-59
2021/05/08 05:37:42;;;;;;;17.73;15.93;;;;;;;;;;2113672;28;20177;-60
2021/05/08 05:38:43;;;;;;;17.07;15.37;;;;;;;;;;2107866;28;20187;-60
2021/05/08 05:39:43;;;;;;;17.73;15.87;;;;;;;;;;2113143;28;20204;-59
2021/05/08 05:40:44;;;;;;;17.67;15.90;;;;;;;;;;2090568;28;20203;-57
2021/05/08 05:41:44;;;;;;;17.27;15.50;;;;;;;;;;2106414;28;20257;-59
2021/05/08 05:42:44;;;;;;;16.90;15.23;;;;;;;;;;2114716;27;20161;-58
2021/05/08 05:43:44;;;;;;;16.27;14.70;;;;;;;;;;2112267;28;20551;-58
2021/05/08 05:44:45;;;;;;;16.93;14.87;;;;;;;;;;2120688;27;20226;-59
2021/05/08 05:45:45;;;;;;;17.53;15.90;;;;;;;;;;2115568;28;20186;-56
2021/05/08 05:46:45;;;;;;;18.63;15.70;;;;;;;;;;2113027;27;20177;-58
2021/05/08 05:47:53;;;;;;;16.87;15.27;;;;;;;;;;2123731;27;20161;-59
2021/05/08 05:48:53;;;;;;;17.43;15.63;;;;;;;;;;2109358;28;20185;-57
2021/05/08 05:49:54;;;;;;;18.63;16.83;;;;;;;;;;2112093;27;20193;-60
2021/05/08 05:50:54;;;;;;;17.43;15.37;;;;;;;;;;2105730;28;20232;-58
2021/05/08 05:51:54;;;;;;;15.40;13.90;;;;;;;;;;2098750;28;20687;-55
2021/05/08 05:52:55;;;;;;;16.70;14.77;;;;;;;;;;2113920;28;20177;-60
2021/05/08 05:53:57;;;;;;;15.60;14.17;;;;;;;;;;2105554;28;20182;-60
2021/05/08 05:54:58;;;;;;;16.43;14.77;;;;;;;;;;2114634;27;20296;-58